Greentown, Ohio
Current Conditions -  °F | °C
As of 12:51 AM on Tuesday 27 Jan 2015 (Local Time) from KCAK Reporting Station
Light Snow Light Snow  
Wind Chill:   Ceiling: 1700
Heat Index: 19°   Visibility: 3mi
Dew Point: 14°   Wind: 9mph
Humidity: 81%   Direction: 300°WNW
Pressure: 29.86"   Gusts: NA
Location:  40.93°N, 81.4°W
Report Text: KCAK 270551Z 30008KT 3SM -SN OVC017 M07/M10 A2986 RMK AO2 SLP130 P0000 60001 4/006 T10721100 11067 21072 58003 $
Loading
Personal Weather Stations






























Interactive Weather Map New forecast layout! Learn more

10-Day Weather Forecast

Advertisements
Track Severe Weather on mobile